Terminal Aerodrome Forecast
Issued by NWS

Home | Current Version | Previous Version | Text Only | Print | Product List | Glossary Off
Versions: 1 2 3 4 5 6 7 8 9 10 11 12 13 14 15 16 17 18

000
FTUS43 KIWX 291700
TAFSBN
TAF
KSBN 291720Z 2918/3018 31010G16KT P6SM SCT050
     FM292300 22004KT P6SM SCT250
     FM301600 25005KT P6SM SCT040 BKN250=

USA.gov is the U.S. government's official web portal to all federal, state and local government web resources and services.